sensor_id;sensor_type;location;lat;lon;timestamp;pressure;altitude;pressure_sealevel;temperature;humidity
35248;BME280;21380;52.194;20.520;2023-07-31T00:00:33;99869.72;;;23.73;71.16
35248;BME280;21380;52.194;20.520;2023-07-31T00:03:19;99874.88;;;23.76;70.89
35248;BME280;21380;52.194;20.520;2023-07-31T00:05:45;99890.59;;;23.80;71.01
35248;BME280;21380;52.194;20.520;2023-07-31T00:08:11;99871.47;;;23.72;70.67
35248;BME280;21380;52.194;20.520;2023-07-31T00:10:37;99890.59;;;23.80;70.90
35248;BME280;21380;52.194;20.520;2023-07-31T00:13:02;99887.09;;;23.80;70.73
35248;BME280;21380;52.194;20.520;2023-07-31T00:15:29;99880.25;;;23.73;70.84
35248;BME280;21380;52.194;20.520;2023-07-31T00:17:55;99885.56;;;23.70;70.75
35248;BME280;21380;52.194;20.520;2023-07-31T00:20:21;99883.72;;;23.73;71.04
35248;BME280;21380;52.194;20.520;2023-07-31T00:22:47;99870.69;;;23.67;71.05
35248;BME280;21380;52.194;20.520;2023-07-31T00:25:13;99889.84;;;23.75;70.87
35248;BME280;21380;52.194;20.520;2023-07-31T00:27:39;99892.44;;;23.77;70.87
35248;BME280;21380;52.194;20.520;2023-07-31T00:30:05;99872.44;;;23.68;71.01
35248;BME280;21380;52.194;20.520;2023-07-31T00:32:31;99875.91;;;23.70;70.77
35248;BME280;21380;52.194;20.520;2023-07-31T00:34:57;99881.94;;;23.75;70.53
35248;BME280;21380;52.194;20.520;2023-07-31T00:37:23;99878.41;;;23.75;70.94
35248;BME280;21380;52.194;20.520;2023-07-31T00:39:49;99856.72;;;23.63;70.78
35248;BME280;21380;52.194;20.520;2023-07-31T00:42:15;99855.91;;;23.61;70.76
35248;BME280;21380;52.194;20.520;2023-07-31T00:44:40;99883.72;;;23.73;70.47
35248;BME280;21380;52.194;20.520;2023-07-31T00:47:06;99863.81;;;23.61;70.65
35248;BME280;21380;52.194;20.520;2023-07-31T00:49:32;99875.06;;;23.68;70.60
35248;BME280;21380;52.194;20.520;2023-07-31T00:51:59;99868.19;;;23.62;70.59
35248;BME280;21380;52.194;20.520;2023-07-31T00:54:25;99869.94;;;23.62;70.52
35248;BME280;21380;52.194;20.520;2023-07-31T00:56:52;99867.31;;;23.62;70.45
35248;BME280;21380;52.194;20.520;2023-07-31T00:59:19;99883.81;;;23.70;70.58
35248;BME280;21380;52.194;20.520;2023-07-31T01:01:46;99878.59;;;23.67;70.77
35248;BME280;21380;52.194;20.520;2023-07-31T01:04:12;99881.19;;;23.70;70.66
35248;BME280;21380;52.194;20.520;2023-07-31T01:07:02;99863.81;;;23.60;70.55
35248;BME280;21380;52.194;20.520;2023-07-31T01:12:15;99877.84;;;23.62;70.64
35248;BME280;21380;52.194;20.520;2023-07-31T01:14:52;99887.38;;;23.66;70.44
35248;BME280;21380;52.194;20.520;2023-07-31T01:17:27;99876.97;;;23.61;70.67
35248;BME280;21380;52.194;20.520;2023-07-31T01:19:55;99864.00;;;23.54;70.53
35248;BME280;21380;52.194;20.520;2023-07-31T01:24:56;99895.31;;;23.64;70.48
35248;BME280;21380;52.194;20.520;2023-07-31T01:27:30;99879.72;;;23.57;70.50
35248;BME280;21380;52.194;20.520;2023-07-31T01:30:03;99885.72;;;23.62;70.45
35248;BME280;21380;52.194;20.520;2023-07-31T01:32:39;99890.97;;;23.63;70.62
35248;BME280;21380;52.194;20.520;2023-07-31T01:35:06;99883.19;;;23.59;70.52
35248;BME280;21380;52.194;20.520;2023-07-31T01:37:33;99893.59;;;23.63;70.40
35248;BME280;21380;52.194;20.520;2023-07-31T01:39:58;99883.31;;;23.53;70.44
35248;BME280;21380;52.194;20.520;2023-07-31T01:42:24;99891.00;;;23.62;70.30
35248;BME280;21380;52.194;20.520;2023-07-31T01:44:50;99884.88;;;23.61;70.30
35248;BME280;21380;52.194;20.520;2023-07-31T01:47:16;99875.38;;;23.54;70.23
35248;BME280;21380;52.194;20.520;2023-07-31T01:49:41;99887.50;;;23.61;70.29
35248;BME280;21380;52.194;20.520;2023-07-31T01:52:08;99884.00;;;23.61;70.33
35248;BME280;21380;52.194;20.520;2023-07-31T01:54:33;99872.91;;;23.46;70.45
35248;BME280;21380;52.194;20.520;2023-07-31T01:56:59;99903.31;;;23.60;70.50
35248;BME280;21380;52.194;20.520;2023-07-31T01:59:25;99905.94;;;23.60;70.55
35248;BME280;21380;52.194;20.520;2023-07-31T02:01:51;99916.47;;;23.60;70.66
35248;BME280;21380;52.194;20.520;2023-07-31T02:04:17;99909.50;;;23.59;70.67
35248;BME280;21380;52.194;20.520;2023-07-31T02:06:43;99896.44;;;23.54;70.27
35248;BME280;21380;52.194;20.520;2023-07-31T02:09:09;99896.34;;;23.57;70.61
35248;BME280;21380;52.194;20.520;2023-07-31T02:11:35;99897.38;;;23.52;70.71
35248;BME280;21380;52.194;20.520;2023-07-31T02:14:00;99889.56;;;23.47;70.56
35248;BME280;21380;52.194;20.520;2023-07-31T02:16:26;99908.88;;;23.47;70.37
35248;BME280;21380;52.194;20.520;2023-07-31T02:18:52;99917.47;;;23.56;70.83
35248;BME280;21380;52.194;20.520;2023-07-31T02:21:18;99920.97;;;23.55;70.34
35248;BME280;21380;52.194;20.520;2023-07-31T02:23:44;99907.88;;;23.53;70.42
35248;BME280;21380;52.194;20.520;2023-07-31T02:26:10;99919.22;;;23.55;70.60
35248;BME280;21380;52.194;20.520;2023-07-31T02:28:35;99893.94;;;23.48;70.64
35248;BME280;21380;52.194;20.520;2023-07-31T02:31:01;99891.22;;;23.51;70.51
35248;BME280;21380;52.194;20.520;2023-07-31T02:33:27;99884.16;;;23.53;70.34
35248;BME280;21380;52.194;20.520;2023-07-31T02:35:53;99886.97;;;23.45;70.46
35248;BME280;21380;52.194;20.520;2023-07-31T02:38:19;99904.38;;;23.53;70.55
35248;BME280;21380;52.194;20.520;2023-07-31T02:40:45;99904.38;;;23.53;70.39
35248;BME280;21380;52.194;20.520;2023-07-31T02:43:10;99894.91;;;23.44;70.35
35248;BME280;21380;52.194;20.520;2023-07-31T02:45:36;99895.63;;;23.51;70.39
35248;BME280;21380;52.194;20.520;2023-07-31T02:48:02;99903.50;;;23.52;70.29
35248;BME280;21380;52.194;20.520;2023-07-31T02:50:28;99905.31;;;23.48;70.12
35248;BME280;21380;52.194;20.520;2023-07-31T02:52:54;99899.25;;;23.46;70.29
35248;BME280;21380;52.194;20.520;2023-07-31T02:55:20;99903.56;;;23.49;70.24
35248;BME280;21380;52.194;20.520;2023-07-31T02:57:46;99917.53;;;23.51;70.54
35248;BME280;21380;52.194;20.520;2023-07-31T03:00:13;99917.53;;;23.51;70.51
35248;BME280;21380;52.194;20.520;2023-07-31T03:02:38;99914.13;;;23.47;70.22
35248;BME280;21380;52.194;20.520;2023-07-31T03:05:05;99918.59;;;23.42;70.20
35248;BME280;21380;52.194;20.520;2023-07-31T03:07:49;99927.25;;;23.49;70.09
35248;BME280;21380;52.194;20.520;2023-07-31T03:10:29;99929.94;;;23.46;70.30
35248;BME280;21380;52.194;20.520;2023-07-31T03:12:55;99932.53;;;23.49;70.42
35248;BME280;21380;52.194;20.520;2023-07-31T03:15:21;99941.28;;;23.50;70.20
35248;BME280;21380;52.194;20.520;2023-07-31T03:17:47;99922.16;;;23.40;70.16
35248;BME280;21380;52.194;20.520;2023-07-31T03:20:13;99940.50;;;23.44;69.96
35248;BME280;21380;52.194;20.520;2023-07-31T03:22:39;99924.84;;;23.38;70.43
35248;BME280;21380;52.194;20.520;2023-07-31T03:25:05;99916.97;;;23.37;69.97
35248;BME280;21380;52.194;20.520;2023-07-31T03:27:31;99935.31;;;23.40;69.90
35248;BME280;21380;52.194;20.520;2023-07-31T03:29:57;99943.09;;;23.46;70.38
35248;BME280;21380;52.194;20.520;2023-07-31T03:32:24;99941.34;;;23.46;70.24
35248;BME280;21380;52.194;20.520;2023-07-31T03:34:50;99936.25;;;23.37;70.30
35248;BME280;21380;52.194;20.520;2023-07-31T03:37:16;99954.56;;;23.45;69.99
35248;BME280;21380;52.194;20.520;2023-07-31T03:39:41;99958.91;;;23.46;70.34
35248;BME280;21380;52.194;20.520;2023-07-31T03:42:07;99948.47;;;23.41;70.06
35248;BME280;21380;52.194;20.520;2023-07-31T03:44:33;99945.06;;;23.36;70.34
35248;BME280;21380;52.194;20.520;2023-07-31T03:46:59;99960.66;;;23.45;70.13
35248;BME280;21380;52.194;20.520;2023-07-31T03:49:25;99962.50;;;23.42;70.25
35248;BME280;21380;52.194;20.520;2023-07-31T03:51:50;99945.06;;;23.36;70.32
35248;BME280;21380;52.194;20.520;2023-07-31T03:54:16;99950.34;;;23.36;69.87
35248;BME280;21380;52.194;20.520;2023-07-31T03:56:42;99945.13;;;23.33;69.81
35248;BME280;21380;52.194;20.520;2023-07-31T03:59:08;99971.19;;;23.45;69.89
35248;BME280;21380;52.194;20.520;2023-07-31T04:01:34;99952.97;;;23.35;70.32
35248;BME280;21380;52.194;20.520;2023-07-31T04:04:00;99957.38;;;23.34;70.22
35248;BME280;21380;52.194;20.520;2023-07-31T04:06:26;99964.41;;;23.34;70.34
35248;BME280;21380;52.194;20.520;2023-07-31T04:08:51;99957.44;;;23.31;69.93
35248;BME280;21380;52.194;20.520;2023-07-31T04:11:17;99971.47;;;23.31;70.21
35248;BME280;21380;52.194;20.520;2023-07-31T04:13:43;99974.06;;;23.33;69.96
35248;BME280;21380;52.194;20.520;2023-07-31T04:16:09;99975.81;;;23.34;69.74
35248;BME280;21380;52.194;20.520;2023-07-31T04:18:35;99967.06;;;23.32;69.86
35248;BME280;21380;52.194;20.520;2023-07-31T04:21:00;99980.09;;;23.38;69.79
35248;BME280;21380;52.194;20.520;2023-07-31T04:23:29;99989.66;;;23.44;70.07
35248;BME280;21380;52.194;20.520;2023-07-31T04:25:55;99987.94;;;23.43;70.04
35248;BME280;21380;52.194;20.520;2023-07-31T04:28:21;99973.22;;;23.31;70.13
35248;BME280;21380;52.194;20.520;2023-07-31T04:30:47;99993.19;;;23.43;70.12
35248;BME280;21380;52.194;20.520;2023-07-31T04:33:13;99988.88;;;23.39;70.19
35248;BME280;21380;52.194;20.520;2023-07-31T04:35:39;99999.34;;;23.42;70.09
35248;BME280;21380;52.194;20.520;2023-07-31T04:38:05;99996.72;;;23.42;69.86
35248;BME280;21380;52.194;20.520;2023-07-31T04:40:31;99987.09;;;23.39;70.00
35248;BME280;21380;52.194;20.520;2023-07-31T04:42:57;99993.22;;;23.40;70.04
35248;BME280;21380;52.194;20.520;2023-07-31T04:45:23;99994.97;;;23.41;69.85
35248;BME280;21380;52.194;20.520;2023-07-31T04:47:49;99985.44;;;23.35;70.08
35248;BME280;21380;52.194;20.520;2023-07-31T04:50:14;100008.13;;;23.41;70.00
35248;BME280;21380;52.194;20.520;2023-07-31T04:52:40;100004.66;;;23.40;70.05
35248;BME280;21380;52.194;20.520;2023-07-31T04:55:06;99997.72;;;23.36;69.88
35248;BME280;21380;52.194;20.520;2023-07-31T04:57:32;100005.50;;;23.41;70.10
35248;BME280;21380;52.194;20.520;2023-07-31T04:59:58;100004.66;;;23.40;69.69
35248;BME280;21380;52.194;20.520;2023-07-31T05:02:24;100002.09;;;23.36;69.86
35248;BME280;21380;52.194;20.520;2023-07-31T05:04:50;99997.75;;;23.33;69.87
35248;BME280;21380;52.194;20.520;2023-07-31T05:07:16;100006.50;;;23.35;69.71
35248;BME280;21380;52.194;20.520;2023-07-31T05:09:42;100009.03;;;23.40;69.79
35248;BME280;21380;52.194;20.520;2023-07-31T05:12:08;100002.13;;;23.34;69.99
35248;BME280;21380;52.194;20.520;2023-07-31T05:14:34;100008.16;;;23.39;70.05
35248;BME280;21380;52.194;20.520;2023-07-31T05:17:00;100014.28;;;23.40;70.25
35248;BME280;21380;52.194;20.520;2023-07-31T05:19:26;99992.69;;;23.24;70.20
35248;BME280;21380;52.194;20.520;2023-07-31T05:21:52;100012.56;;;23.39;70.15
35248;BME280;21380;52.194;20.520;2023-07-31T05:24:17;100023.09;;;23.39;69.90
35248;BME280;21380;52.194;20.520;2023-07-31T05:26:43;100004.88;;;23.28;70.03
35248;BME280;21380;52.194;20.520;2023-07-31T05:29:09;100015.22;;;23.37;69.87
35248;BME280;21380;52.194;20.520;2023-07-31T05:31:35;100009.16;;;23.32;70.08
35248;BME280;21380;52.194;20.520;2023-07-31T05:34:01;100001.38;;;23.26;69.87
35248;BME280;21380;52.194;20.520;2023-07-31T05:36:27;100030.13;;;23.38;70.20
35248;BME280;21380;52.194;20.520;2023-07-31T05:38:52;100029.28;;;23.36;69.85
35248;BME280;21380;52.194;20.520;2023-07-31T05:41:19;100021.44;;;23.33;70.15
35248;BME280;21380;52.194;20.520;2023-07-31T05:43:44;100032.81;;;23.35;69.87
35248;BME280;21380;52.194;20.520;2023-07-31T05:46:11;100025.84;;;23.31;69.80
35248;BME280;21380;52.194;20.520;2023-07-31T05:48:37;100025.81;;;23.34;70.09
35248;BME280;21380;52.194;20.520;2023-07-31T05:51:03;100009.31;;;23.24;70.12
35248;BME280;21380;52.194;20.520;2023-07-31T05:53:29;100031.00;;;23.39;70.12
35248;BME280;21380;52.194;20.520;2023-07-31T05:55:55;100034.50;;;23.39;70.25
35248;BME280;21380;52.194;20.520;2023-07-31T05:58:21;100015.41;;;23.28;70.13
35248;BME280;21380;52.194;20.520;2023-07-31T06:00:47;100031.00;;;23.37;70.13
35248;BME280;21380;52.194;20.520;2023-07-31T06:03:13;100040.72;;;23.35;70.02
35248;BME280;21380;52.194;20.520;2023-07-31T06:05:39;100044.16;;;23.37;69.76
35248;BME280;21380;52.194;20.520;2023-07-31T06:08:04;100032.84;;;23.32;69.67
35248;BME280;21380;52.194;20.520;2023-07-31T06:10:30;100032.00;;;23.31;69.77
35248;BME280;21380;52.194;20.520;2023-07-31T06:12:56;100018.97;;;23.25;69.84
35248;BME280;21380;52.194;20.520;2023-07-31T06:15:23;100030.22;;;23.32;70.16
35248;BME280;21380;52.194;20.520;2023-07-31T06:17:48;100041.53;;;23.37;70.04
35248;BME280;21380;52.194;20.520;2023-07-31T06:20:14;100043.31;;;23.37;69.77
35248;BME280;21380;52.194;20.520;2023-07-31T06:22:40;100045.09;;;23.36;69.80
35248;BME280;21380;52.194;20.520;2023-07-31T06:25:06;100048.63;;;23.34;69.75
35248;BME280;21380;52.194;20.520;2023-07-31T06:27:32;100044.28;;;23.33;70.12
35248;BME280;21380;52.194;20.520;2023-07-31T06:29:58;100047.72;;;23.36;69.72
35248;BME280;21380;52.194;20.520;2023-07-31T06:32:24;100042.50;;;23.33;69.84
35248;BME280;21380;52.194;20.520;2023-07-31T06:34:50;100036.38;;;23.31;69.72
35248;BME280;21380;52.194;20.520;2023-07-31T06:37:16;100038.16;;;23.30;69.90
35248;BME280;21380;52.194;20.520;2023-07-31T06:39:42;100048.53;;;23.38;69.57
35248;BME280;21380;52.194;20.520;2023-07-31T06:42:08;100040.81;;;23.29;69.49
35248;BME280;21380;52.194;20.520;2023-07-31T06:44:34;100055.63;;;23.36;69.89
35248;BME280;21380;52.194;20.520;2023-07-31T06:47:00;100059.09;;;23.37;69.66
35248;BME280;21380;52.194;20.520;2023-07-31T06:49:25;100051.19;;;23.37;69.69
35248;BME280;21380;52.194;20.520;2023-07-31T06:51:51;100039.00;;;23.31;69.80
35248;BME280;21380;52.194;20.520;2023-07-31T06:54:17;100027.69;;;23.26;69.71
35248;BME280;21380;52.194;20.520;2023-07-31T06:56:43;100056.56;;;23.30;69.41
35248;BME280;21380;52.194;20.520;2023-07-31T06:59:09;100051.78;;;22.46;71.39
35248;BME280;21380;52.194;20.520;2023-07-31T07:01:35;100061.19;;;21.93;73.20
35248;BME280;21380;52.194;20.520;2023-07-31T07:04:01;100059.50;;;21.87;73.45
35248;BME280;21380;52.194;20.520;2023-07-31T07:06:26;100050.06;;;21.74;73.99
35248;BME280;21380;52.194;20.520;2023-07-31T07:08:52;100042.69;;;22.02;72.65
35248;BME280;21380;52.194;20.520;2023-07-31T07:11:19;100052.03;;;22.23;71.99
35248;BME280;21380;52.194;20.520;2023-07-31T07:13:44;100044.91;;;22.33;71.52
35248;BME280;21380;52.194;20.520;2023-07-31T07:16:10;100046.53;;;22.45;71.19
35248;BME280;21380;52.194;20.520;2023-07-31T07:18:36;100048.09;;;22.57;70.98
35248;BME280;21380;52.194;20.520;2023-07-31T07:21:02;100041.88;;;22.64;70.82
35248;BME280;21380;52.194;20.520;2023-07-31T07:23:28;100043.53;;;22.71;70.71
35248;BME280;21380;52.194;20.520;2023-07-31T07:25:54;100038.25;;;22.71;70.10
35248;BME280;21380;52.194;20.520;2023-07-31T07:28:20;100051.19;;;22.83;70.32
35248;BME280;21380;52.194;20.520;2023-07-31T07:30:51;100050.25;;;22.88;70.22
35248;BME280;21380;52.194;20.520;2023-07-31T07:33:17;100038.97;;;22.82;69.86
35248;BME280;21380;52.194;20.520;2023-07-31T07:35:43;100052.75;;;22.95;69.75
35248;BME280;21380;52.194;20.520;2023-07-31T07:38:09;100038.75;;;22.95;69.58
35248;BME280;21380;52.194;20.520;2023-07-31T07:40:41;100040.44;;;22.99;69.92
35248;BME280;21380;52.194;20.520;2023-07-31T07:43:08;100021.22;;;22.94;69.61
35248;BME280;21380;52.194;20.520;2023-07-31T07:45:34;100035.09;;;23.02;69.34
35248;BME280;21380;52.194;20.520;2023-07-31T07:47:59;100047.25;;;23.09;69.68
35248;BME280;21380;52.194;20.520;2023-07-31T07:50:25;100045.50;;;23.11;69.84
35248;BME280;21380;52.194;20.520;2023-07-31T07:52:52;100028.00;;;23.07;69.80
35248;BME280;21380;52.194;20.520;2023-07-31T07:55:18;100041.94;;;23.15;69.38
35248;BME280;21380;52.194;20.520;2023-07-31T07:57:44;100037.53;;;23.14;69.70
35248;BME280;21380;52.194;20.520;2023-07-31T08:00:12;100038.41;;;23.17;69.34
35248;BME280;21380;52.194;20.520;2023-07-31T08:02:38;100042.72;;;23.21;69.17
35248;BME280;21380;52.194;20.520;2023-07-31T08:05:04;100039.19;;;23.22;69.65
35248;BME280;21380;52.194;20.520;2023-07-31T08:07:30;100034.78;;;23.24;69.37
35248;BME280;21380;52.194;20.520;2023-07-31T08:09:56;100033.97;;;23.20;69.54
35248;BME280;21380;52.194;20.520;2023-07-31T08:12:22;100037.34;;;23.27;69.36
35248;BME280;21380;52.194;20.520;2023-07-31T08:14:48;100041.72;;;23.28;69.35
35248;BME280;21380;52.194;20.520;2023-07-31T08:17:14;100035.56;;;23.29;69.59
35248;BME280;21380;52.194;20.520;2023-07-31T08:19:40;100035.56;;;23.29;69.35
35248;BME280;21380;52.194;20.520;2023-07-31T08:22:06;100040.78;;;23.30;69.05
35248;BME280;21380;52.194;20.520;2023-07-31T08:24:32;100039.00;;;23.31;69.03
35248;BME280;21380;52.194;20.520;2023-07-31T08:26:58;100045.16;;;23.31;69.03
35248;BME280;21380;52.194;20.520;2023-07-31T08:29:25;100042.53;;;23.31;69.03
35248;BME280;21380;52.194;20.520;2023-07-31T08:31:51;100044.28;;;23.33;68.93
35248;BME280;21380;52.194;20.520;2023-07-31T08:34:17;100042.56;;;23.30;68.97
35248;BME280;21380;52.194;20.520;2023-07-31T08:36:43;100038.09;;;23.34;69.22
35248;BME280;21380;52.194;20.520;2023-07-31T08:39:10;100043.34;;;23.34;69.06
35248;BME280;21380;52.194;20.520;2023-07-31T08:41:39;100040.78;;;23.30;68.71
35248;BME280;21380;52.194;20.520;2023-07-31T08:44:06;100039.91;;;23.31;68.44
35248;BME280;21380;52.194;20.520;2023-07-31T08:46:33;100054.72;;;23.36;68.63
35248;BME280;21380;52.194;20.520;2023-07-31T08:49:00;100054.72;;;23.36;68.69
35248;BME280;21380;52.194;20.520;2023-07-31T08:51:30;100039.81;;;23.36;68.90
35248;BME280;21380;52.194;20.520;2023-07-31T08:53:55;100029.44;;;23.27;68.66
35248;BME280;21380;52.194;20.520;2023-07-31T08:56:23;100049.44;;;23.37;68.33
35248;BME280;21380;52.194;20.520;2023-07-31T08:58:50;100029.44;;;23.27;68.29
35248;BME280;21380;52.194;20.520;2023-07-31T09:01:16;100031.94;;;23.35;68.53
35248;BME280;21380;52.194;20.520;2023-07-31T09:03:43;100035.44;;;23.35;68.41
35248;BME280;21380;52.194;20.520;2023-07-31T09:06:10;100038.00;;;23.38;68.15
35248;BME280;21380;52.194;20.520;2023-07-31T09:08:40;100028.47;;;23.33;68.37
35248;BME280;21380;52.194;20.520;2023-07-31T09:11:07;100034.56;;;23.36;68.20
35248;BME280;21380;52.194;20.520;2023-07-31T09:13:34;100037.97;;;23.40;68.12
35248;BME280;21380;52.194;20.520;2023-07-31T09:16:00;100041.50;;;23.40;67.90
35248;BME280;21380;52.194;20.520;2023-07-31T09:18:26;100040.59;;;23.41;67.87
35248;BME280;21380;52.194;20.520;2023-07-31T09:21:05;100034.50;;;23.39;67.76
35248;BME280;21380;52.194;20.520;2023-07-31T09:23:45;100029.22;;;23.39;67.63
35248;BME280;21380;52.194;20.520;2023-07-31T09:26:32;100021.44;;;23.33;67.35
35248;BME280;21380;52.194;20.520;2023-07-31T09:29:05;100038.81;;;23.42;67.64
35248;BME280;21380;52.194;20.520;2023-07-31T09:34:04;100036.16;;;23.43;67.26
35248;BME280;21380;52.194;20.520;2023-07-31T09:36:31;100021.47;;;23.31;67.54
35248;BME280;21380;52.194;20.520;2023-07-31T09:39:02;100030.97;;;23.40;67.05
35248;BME280;21380;52.194;20.520;2023-07-31T09:41:29;100041.41;;;23.43;66.93
35248;BME280;21380;52.194;20.520;2023-07-31T09:43:55;100037.94;;;23.43;66.78
35248;BME280;21380;52.194;20.520;2023-07-31T09:46:21;100034.44;;;23.41;65.48
35248;BME280;21380;52.194;20.520;2023-07-31T09:48:50;100037.03;;;23.42;66.02
35248;BME280;21380;52.194;20.520;2023-07-31T09:51:17;100024.88;;;23.37;65.92
35248;BME280;21380;52.194;20.520;2023-07-31T09:53:50;100032.72;;;23.41;66.31
35248;BME280;21380;52.194;20.520;2023-07-31T09:56:17;100039.63;;;23.45;66.24
35248;BME280;21380;52.194;20.520;2023-07-31T09:58:49;100041.38;;;23.46;66.81
35248;BME280;21380;52.194;20.520;2023-07-31T10:01:16;100037.84;;;23.46;65.91
35248;BME280;21380;52.194;20.520;2023-07-31T10:03:44;100034.38;;;23.45;65.40
35248;BME280;21380;52.194;20.520;2023-07-31T10:06:11;100023.06;;;23.40;65.77
35248;BME280;21380;52.194;20.520;2023-07-31T10:08:42;100033.47;;;23.46;64.97
35248;BME280;21380;52.194;20.520;2023-07-31T10:11:11;100030.06;;;23.41;65.21
35248;BME280;21380;52.194;20.520;2023-07-31T10:13:38;100020.47;;;23.37;64.89
35248;BME280;21380;52.194;20.520;2023-07-31T10:16:05;100016.97;;;23.38;64.58
35248;BME280;21380;52.194;20.520;2023-07-31T10:18:31;100034.34;;;23.47;64.68
35248;BME280;21380;52.194;20.520;2023-07-31T10:20:58;100035.22;;;23.47;64.58
35248;BME280;21380;52.194;20.520;2023-07-31T10:23:24;100024.81;;;23.41;64.87
35248;BME280;21380;52.194;20.520;2023-07-31T10:25:53;100031.69;;;23.47;64.92
35248;BME280;21380;52.194;20.520;2023-07-31T10:28:20;100020.28;;;23.48;65.14
35248;BME280;21380;52.194;20.520;2023-07-31T10:30:47;100015.19;;;23.40;64.67
35248;BME280;21380;52.194;20.520;2023-07-31T10:33:13;100022.91;;;23.48;63.00
35248;BME280;21380;52.194;20.520;2023-07-31T10:35:40;100018.53;;;23.47;63.48
35248;BME280;21380;52.194;20.520;2023-07-31T10:38:10;100017.69;;;23.46;64.19
35248;BME280;21380;52.194;20.520;2023-07-31T10:40:40;100021.13;;;23.48;64.13
35248;BME280;21380;52.194;20.520;2023-07-31T10:43:06;100027.28;;;23.49;64.54
35248;BME280;21380;52.194;20.520;2023-07-31T10:45:35;100020.25;;;23.50;64.46
35248;BME280;21380;52.194;20.520;2023-07-31T10:48:07;100022.03;;;23.49;64.36
35248;BME280;21380;52.194;20.520;2023-07-31T10:50:38;100026.41;;;23.50;63.73
35248;BME280;21380;52.194;20.520;2023-07-31T10:53:34;100025.50;;;23.50;63.95
35248;BME280;21380;52.194;20.520;2023-07-31T10:56:01;100010.72;;;23.44;63.75
35248;BME280;21380;52.194;20.520;2023-07-31T10:58:27;100012.47;;;23.45;63.85
35248;BME280;21380;52.194;20.520;2023-07-31T11:00:58;100015.91;;;23.47;64.65
35248;BME280;21380;52.194;20.520;2023-07-31T11:03:26;100018.50;;;23.48;64.22
35248;BME280;21380;52.194;20.520;2023-07-31T11:06:00;100003.69;;;23.44;63.69
35248;BME280;21380;52.194;20.520;2023-07-31T11:08:31;100008.91;;;23.46;63.80
35248;BME280;21380;52.194;20.520;2023-07-31T11:13:52;100007.03;;;23.51;64.31
35248;BME280;21380;52.194;20.520;2023-07-31T11:16:20;100014.06;;;23.52;64.43
35248;BME280;21380;52.194;20.520;2023-07-31T11:18:48;100007.19;;;23.45;64.18
35248;BME280;21380;52.194;20.520;2023-07-31T11:21:16;100017.56;;;23.53;63.73
35248;BME280;21380;52.194;20.520;2023-07-31T11:23:49;100014.94;;;23.51;64.11
35248;BME280;21380;52.194;20.520;2023-07-31T11:26:16;100008.91;;;23.47;64.28
35248;BME280;21380;52.194;20.520;2023-07-31T11:28:48;100015.78;;;23.53;64.69
35248;BME280;21380;52.194;20.520;2023-07-31T11:31:14;99993.22;;;23.41;64.64
35248;BME280;21380;52.194;20.520;2023-07-31T11:33:40;100010.53;;;23.53;64.58
35248;BME280;21380;52.194;20.520;2023-07-31T11:36:06;100018.44;;;23.53;64.52
35248;BME280;21380;52.194;20.520;2023-07-31T11:38:39;100007.13;;;23.48;65.04
35248;BME280;21380;52.194;20.520;2023-07-31T11:41:07;100014.03;;;23.54;64.82
35248;BME280;21380;52.194;20.520;2023-07-31T11:43:33;100009.69;;;23.51;64.93
35248;BME280;21380;52.194;20.520;2023-07-31T11:46:00;100010.50;;;23.55;64.79
35248;BME280;21380;52.194;20.520;2023-07-31T11:48:32;100002.59;;;23.55;65.07
35248;BME280;21380;52.194;20.520;2023-07-31T11:51:04;99994.81;;;23.50;64.97
35248;BME280;21380;52.194;20.520;2023-07-31T11:56:03;100003.56;;;23.51;64.57
35248;BME280;21380;52.194;20.520;2023-07-31T11:58:34;99996.56;;;23.50;64.47
35248;BME280;21380;52.194;20.520;2023-07-31T12:01:01;99994.81;;;23.48;64.71
35248;BME280;21380;52.194;20.520;2023-07-31T12:03:28;100003.53;;;23.54;64.71
35248;BME280;21380;52.194;20.520;2023-07-31T12:05:54;99988.69;;;23.48;64.52
35248;BME280;21380;52.194;20.520;2023-07-31T12:08:22;99999.97;;;23.55;64.60
35248;BME280;21380;52.194;20.520;2023-07-31T12:10:50;99985.13;;;23.51;64.58
35248;BME280;21380;52.194;20.520;2023-07-31T12:13:24;99990.41;;;23.51;65.13
35248;BME280;21380;52.194;20.520;2023-07-31T12:15:55;99987.78;;;23.51;65.18
35248;BME280;21380;52.194;20.520;2023-07-31T12:18:22;99979.03;;;23.48;65.13
35248;BME280;21380;52.194;20.520;2023-07-31T12:20:59;99985.16;;;23.49;65.20
35248;BME280;21380;52.194;20.520;2023-07-31T12:23:30;99982.41;;;23.55;64.95
35248;BME280;21380;52.194;20.520;2023-07-31T12:26:16;99986.78;;;23.56;65.18
35248;BME280;21380;52.194;20.520;2023-07-31T12:28:45;99981.53;;;23.56;65.43
35248;BME280;21380;52.194;20.520;2023-07-31T12:31:16;99975.38;;;23.56;65.11
35248;BME280;21380;52.194;20.520;2023-07-31T12:33:47;99968.38;;;23.56;65.16
35248;BME280;21380;52.194;20.520;2023-07-31T12:36:31;99969.22;;;23.57;65.25
35248;BME280;21380;52.194;20.520;2023-07-31T12:39:01;99961.31;;;23.57;65.46
35248;BME280;21380;52.194;20.520;2023-07-31T12:41:27;99958.69;;;23.57;65.74
35248;BME280;21380;52.194;20.520;2023-07-31T12:43:53;99953.47;;;23.55;65.42
35248;BME280;21380;52.194;20.520;2023-07-31T12:46:19;99956.06;;;23.57;65.57
35248;BME280;21380;52.194;20.520;2023-07-31T12:48:45;99949.91;;;23.58;65.38
35248;BME280;21380;52.194;20.520;2023-07-31T12:51:11;99944.63;;;23.58;65.59
35248;BME280;21380;52.194;20.520;2023-07-31T12:53:38;99945.59;;;23.54;65.56
35248;BME280;21380;52.194;20.520;2023-07-31T12:56:03;99948.16;;;23.57;65.95
35248;BME280;21380;52.194;20.520;2023-07-31T12:58:30;99942.88;;;23.57;65.75